Time;durP1;ratioP1;P1;durP2;ratioP2;P2;SDS_P1;SDS_P2;PMS_P1;PMS_P2;Temp;Humidity;BMP_temperature;BMP_pressure;BME280_temperature;BME280_humidity;BME280_pressure;Samples;Min_cycle;Max_cycle;Signal;HPM_P1;HPM_P2
2021/07/30 00:00:55;;;;;;;5.93;2.17;;;;;;;;;;5110440;28;20043;-83
2021/07/30 00:03:21;;;;;;;3.47;2.60;;;;;;;;;;5110253;28;20047;-83
2021/07/30 00:05:50;;;;;;;2.63;1.42;;;;;;;;;;5110495;28;20503;-83
2021/07/30 00:08:17;;;;;;;4.35;1.35;;;;;;;;;;5109960;28;20040;-82
2021/07/30 00:10:44;;;;;;;2.47;1.25;;;;;;;;;;5110058;28;20482;-84
2021/07/30 00:13:11;;;;;;;2.70;1.92;;;;;;;;;;5110328;28;20516;-86
2021/07/30 00:15:37;;;;;;;1.85;1.13;;;;;;;;;;5110305;28;20047;-85
2021/07/30 00:18:04;;;;;;;1.65;1.30;;;;;;;;;;5110222;28;20058;-86
2021/07/30 00:20:31;;;;;;;8.10;2.72;;;;;;;;;;5109856;28;20047;-86
2021/07/30 00:22:59;;;;;;;3.15;1.80;;;;;;;;;;5110074;28;20047;-87
2021/07/30 00:25:29;;;;;;;4.20;2.80;;;;;;;;;;5109457;28;20058;-87
2021/07/30 00:27:57;;;;;;;6.80;2.40;;;;;;;;;;5109609;28;20062;-87
2021/07/30 00:30:25;;;;;;;3.72;1.63;;;;;;;;;;5109853;28;20434;-87
2021/07/30 00:32:51;;;;;;;4.10;1.50;;;;;;;;;;5109094;28;20047;-84
2021/07/30 00:35:18;;;;;;;4.13;1.38;;;;;;;;;;5098061;28;20089;-84
2021/07/30 00:37:44;;;;;;;3.05;1.25;;;;;;;;;;5089409;28;20060;-83
2021/07/30 00:40:11;;;;;;;4.93;1.88;;;;;;;;;;5089049;28;20052;-84
2021/07/30 00:42:49;;;;;;;3.85;1.05;;;;;;;;;;5089454;28;20410;-83
2021/07/30 00:45:16;;;;;;;6.43;1.45;;;;;;;;;;5089477;28;20043;-83
2021/07/30 00:47:42;;;;;;;2.33;2.13;;;;;;;;;;5089509;28;20389;-84
2021/07/30 00:50:09;;;;;;;1.60;0.80;;;;;;;;;;5089524;28;20044;-85
2021/07/30 00:52:36;;;;;;;3.03;2.20;;;;;;;;;;5089387;28;20047;-84
2021/07/30 00:55:02;;;;;;;4.75;1.45;;;;;;;;;;5089574;28;20055;-84
2021/07/30 00:57:29;;;;;;;5.70;1.15;;;;;;;;;;5089525;28;20053;-84
2021/07/30 00:59:57;;;;;;;4.68;3.30;;;;;;;;;;5089538;28;20048;-84
2021/07/30 01:02:24;;;;;;;3.13;1.58;;;;;;;;;;5089417;28;20402;-84
2021/07/30 01:04:50;;;;;;;7.35;2.33;;;;;;;;;;5089530;28;20098;-85
2021/07/30 01:07:17;;;;;;;1.30;0.93;;;;;;;;;;5089129;28;20497;-84
2021/07/30 01:09:44;;;;;;;2.85;1.20;;;;;;;;;;5089192;28;20040;-84
2021/07/30 01:12:11;;;;;;;2.28;1.88;;;;;;;;;;5088423;28;20059;-84
2021/07/30 01:14:38;;;;;;;3.70;2.58;;;;;;;;;;5088932;28;20047;-85
2021/07/30 01:17:06;;;;;;;5.15;2.53;;;;;;;;;;5088816;28;20048;-84
2021/07/30 01:19:32;;;;;;;9.75;2.22;;;;;;;;;;5089105;28;20044;-84
2021/07/30 01:22:02;;;;;;;4.82;2.80;;;;;;;;;;5088847;28;20047;-84
2021/07/30 01:24:30;;;;;;;4.15;1.33;;;;;;;;;;5089155;28;20143;-84
2021/07/30 01:26:57;;;;;;;3.03;1.33;;;;;;;;;;5089292;28;20048;-84
2021/07/30 01:29:24;;;;;;;1.70;0.90;;;;;;;;;;5089097;28;20063;-84
2021/07/30 01:31:51;;;;;;;2.63;1.00;;;;;;;;;;5088830;28;20063;-84
2021/07/30 01:34:18;;;;;;;5.65;2.08;;;;;;;;;;5089190;28;20051;-84
2021/07/30 01:36:44;;;;;;;5.68;1.50;;;;;;;;;;5089195;28;20048;-84
2021/07/30 01:39:11;;;;;;;2.40;0.95;;;;;;;;;;5088873;28;20062;-84
2021/07/30 01:41:39;;;;;;;6.07;1.42;;;;;;;;;;5089172;28;20040;-84
2021/07/30 01:44:06;;;;;;;3.55;1.50;;;;;;;;;;5089069;28;20044;-84
2021/07/30 01:46:33;;;;;;;9.40;1.85;;;;;;;;;;5091247;28;20120;-84
2021/07/30 01:48:59;;;;;;;2.40;1.52;;;;;;;;;;5092854;28;20052;-84
2021/07/30 01:51:26;;;;;;;14.25;2.42;;;;;;;;;;5092597;28;20622;-84
2021/07/30 01:53:52;;;;;;;3.08;2.67;;;;;;;;;;5092526;28;20376;-84
2021/07/30 01:56:19;;;;;;;5.50;2.92;;;;;;;;;;5092156;28;20040;-84
2021/07/30 01:58:47;;;;;;;3.22;1.40;;;;;;;;;;5092593;28;20051;-85
2021/07/30 02:01:13;;;;;;;5.20;2.15;;;;;;;;;;5091765;28;20449;-85
2021/07/30 02:03:40;;;;;;;3.53;2.05;;;;;;;;;;5092108;28;20050;-85
2021/07/30 02:06:07;;;;;;;6.18;2.28;;;;;;;;;;5092174;28;20048;-85
2021/07/30 02:08:34;;;;;;;1.88;0.98;;;;;;;;;;5091980;28;20055;-85
2021/07/30 02:11:00;;;;;;;3.60;2.35;;;;;;;;;;5092211;28;20550;-85
2021/07/30 02:16:12;;;;;;;3.22;1.95;;;;;;;;;;5091811;28;20418;-84
2021/07/30 02:18:39;;;;;;;4.63;1.58;;;;;;;;;;5092154;28;20586;-84
2021/07/30 02:21:06;;;;;;;7.78;2.10;;;;;;;;;;5091725;28;20050;-84
2021/07/30 02:23:32;;;;;;;5.85;2.38;;;;;;;;;;5091614;28;20848;-84
2021/07/30 02:25:59;;;;;;;12.13;2.80;;;;;;;;;;5092006;28;20048;-85
2021/07/30 02:28:25;;;;;;;6.15;2.85;;;;;;;;;;5092008;28;20142;-85
2021/07/30 02:30:52;;;;;;;2.72;1.75;;;;;;;;;;5091834;28;20048;-85
2021/07/30 02:33:20;;;;;;;6.75;1.88;;;;;;;;;;5091714;28;20584;-85
2021/07/30 02:35:47;;;;;;;4.97;1.95;;;;;;;;;;5060364;28;20483;-85
2021/07/30 02:38:13;;;;;;;6.68;3.40;;;;;;;;;;5071075;28;20167;-85
2021/07/30 02:40:40;;;;;;;10.85;3.50;;;;;;;;;;5071535;28;20495;-84
2021/07/30 02:43:07;;;;;;;4.90;2.28;;;;;;;;;;5071524;28;20467;-84
2021/07/30 02:45:33;;;;;;;9.77;1.70;;;;;;;;;;5071360;28;20048;-84
2021/07/30 02:48:00;;;;;;;3.67;2.67;;;;;;;;;;5071289;28;20048;-84
2021/07/30 02:50:28;;;;;;;4.90;2.78;;;;;;;;;;5070940;28;20048;-84
2021/07/30 02:52:54;;;;;;;5.07;2.08;;;;;;;;;;5070901;28;20048;-84
2021/07/30 02:55:21;;;;;;;4.28;2.28;;;;;;;;;;5071071;28;20101;-83
2021/07/30 02:57:47;;;;;;;5.82;2.10;;;;;;;;;;5071066;28;20040;-84
2021/07/30 03:00:14;;;;;;;5.80;2.92;;;;;;;;;;5071087;28;20603;-83
2021/07/30 03:02:41;;;;;;;7.47;3.05;;;;;;;;;;5070991;28;20051;-82
2021/07/30 03:05:08;;;;;;;9.02;2.85;;;;;;;;;;5070930;28;20056;-82
2021/07/30 03:07:36;;;;;;;8.63;3.58;;;;;;;;;;5070705;28;20044;-82
2021/07/30 03:10:03;;;;;;;4.47;3.03;;;;;;;;;;5070615;28;20036;-82
2021/07/30 03:12:29;;;;;;;4.47;2.80;;;;;;;;;;5070807;28;20115;-82
2021/07/30 03:14:56;;;;;;;5.00;1.95;;;;;;;;;;5070663;28;20036;-82
2021/07/30 03:17:22;;;;;;;3.53;2.13;;;;;;;;;;5070735;28;20044;-85
2021/07/30 03:19:49;;;;;;;8.07;2.60;;;;;;;;;;5070698;28;20052;-85
2021/07/30 03:22:15;;;;;;;8.13;1.98;;;;;;;;;;5070728;28;20048;-85
2021/07/30 03:24:43;;;;;;;2.95;2.45;;;;;;;;;;5070562;28;20135;-86
2021/07/30 03:27:10;;;;;;;8.90;3.40;;;;;;;;;;5070444;28;20052;-83
2021/07/30 03:29:36;;;;;;;6.20;2.88;;;;;;;;;;5070481;28;20055;-84
2021/07/30 03:32:03;;;;;;;3.75;2.00;;;;;;;;;;5070349;28;20048;-84
2021/07/30 03:34:32;;;;;;;6.68;3.08;;;;;;;;;;5070029;28;20059;-84
2021/07/30 03:36:59;;;;;;;5.22;2.70;;;;;;;;;;5070320;28;20149;-84
2021/07/30 03:39:26;;;;;;;7.55;3.65;;;;;;;;;;5070052;28;20530;-83
2021/07/30 03:41:53;;;;;;;11.25;4.55;;;;;;;;;;5069773;28;20051;-84
2021/07/30 03:44:20;;;;;;;9.88;3.60;;;;;;;;;;5070351;28;20040;-83
2021/07/30 03:46:46;;;;;;;14.10;6.43;;;;;;;;;;5070240;28;20044;-85
2021/07/30 03:49:13;;;;;;;9.07;4.20;;;;;;;;;;5069991;28;20048;-85
2021/07/30 03:51:39;;;;;;;11.65;3.13;;;;;;;;;;5069821;28;20049;-83
2021/07/30 03:54:06;;;;;;;3.53;2.67;;;;;;;;;;5070070;28;20049;-84
2021/07/30 03:56:33;;;;;;;10.88;5.75;;;;;;;;;;5069858;28;20060;-84
2021/07/30 03:59:01;;;;;;;12.63;4.72;;;;;;;;;;5070004;28;20055;-84
2021/07/30 04:01:27;;;;;;;11.13;3.92;;;;;;;;;;5070011;28;20064;-85
2021/07/30 04:03:54;;;;;;;8.52;4.32;;;;;;;;;;5069846;28;20051;-85
2021/07/30 04:06:20;;;;;;;17.40;4.43;;;;;;;;;;5069956;28;20045;-84
2021/07/30 04:08:47;;;;;;;7.22;2.95;;;;;;;;;;5068435;28;20045;-84
2021/07/30 04:11:13;;;;;;;8.75;3.38;;;;;;;;;;5069132;28;20402;-85
2021/07/30 04:13:40;;;;;;;9.82;3.75;;;;;;;;;;5069539;28;20372;-85
2021/07/30 04:16:08;;;;;;;10.90;4.28;;;;;;;;;;5069652;28;20090;-85
2021/07/30 04:18:35;;;;;;;8.18;3.10;;;;;;;;;;5069141;28;20080;-85
2021/07/30 04:21:04;;;;;;;12.65;3.17;;;;;;;;;;5069346;28;20399;-84
2021/07/30 04:23:30;;;;;;;9.27;3.95;;;;;;;;;;5069650;28;20139;-84
2021/07/30 04:25:57;;;;;;;14.30;2.85;;;;;;;;;;5069795;28;20055;-85
2021/07/30 04:28:23;;;;;;;5.85;2.53;;;;;;;;;;5069351;28;20049;-84
2021/07/30 04:30:50;;;;;;;5.20;3.03;;;;;;;;;;5069183;28;20052;-84
2021/07/30 04:33:18;;;;;;;8.75;4.72;;;;;;;;;;5069440;28;20055;-84
2021/07/30 04:35:45;;;;;;;32.90;3.38;;;;;;;;;;5069192;28;20044;-82
2021/07/30 04:38:12;;;;;;;5.53;3.13;;;;;;;;;;5069087;28;20057;-82
2021/07/30 04:40:38;;;;;;;4.20;2.22;;;;;;;;;;5069077;28;20377;-82
2021/07/30 04:43:06;;;;;;;6.75;3.45;;;;;;;;;;5069359;28;20067;-84
2021/07/30 04:45:33;;;;;;;8.43;2.53;;;;;;;;;;5069287;28;20106;-83
2021/07/30 04:48:00;;;;;;;5.35;2.60;;;;;;;;;;5069666;28;20052;-84
2021/07/30 04:50:28;;;;;;;8.15;3.83;;;;;;;;;;5069375;28;20048;-84
2021/07/30 04:52:55;;;;;;;19.20;4.57;;;;;;;;;;5069160;28;20119;-84
2021/07/30 04:55:21;;;;;;;5.43;3.13;;;;;;;;;;5069320;28;20131;-84
2021/07/30 04:57:48;;;;;;;8.10;3.92;;;;;;;;;;5068966;28;20040;-83
2021/07/30 05:00:15;;;;;;;9.55;3.85;;;;;;;;;;5069164;28;20050;-84
2021/07/30 05:02:41;;;;;;;6.22;2.20;;;;;;;;;;5069442;28;20489;-83
2021/07/30 05:05:08;;;;;;;5.68;3.58;;;;;;;;;;5069351;28;20054;-84
2021/07/30 05:07:36;;;;;;;5.15;2.08;;;;;;;;;;5065200;28;20055;-83
2021/07/30 05:10:03;;;;;;;4.72;3.08;;;;;;;;;;5067387;28;20040;-84
2021/07/30 05:12:30;;;;;;;10.73;2.78;;;;;;;;;;5068727;28;20045;-83
2021/07/30 05:14:56;;;;;;;6.13;4.55;;;;;;;;;;5065056;28;20052;-83
2021/07/30 05:17:26;;;;;;;7.10;3.05;;;;;;;;;;5059253;28;20063;-84
2021/07/30 05:19:52;;;;;;;5.32;2.70;;;;;;;;;;5048936;28;20052;-84
2021/07/30 05:22:19;;;;;;;4.97;2.15;;;;;;;;;;5052587;28;20049;-84
2021/07/30 05:24:47;;;;;;;7.47;3.47;;;;;;;;;;5063199;28;20514;-84
2021/07/30 05:27:14;;;;;;;4.78;2.80;;;;;;;;;;5066041;28;20158;-84
2021/07/30 05:29:40;;;;;;;9.80;3.22;;;;;;;;;;5075449;28;20078;-83
2021/07/30 05:32:07;;;;;;;6.28;3.70;;;;;;;;;;5092590;28;20052;-84
2021/07/30 05:34:34;;;;;;;7.90;4.35;;;;;;;;;;5092242;28;20048;-84
2021/07/30 05:37:01;;;;;;;8.57;3.42;;;;;;;;;;5092548;28;20044;-84
2021/07/30 05:39:29;;;;;;;18.05;7.18;;;;;;;;;;5092876;28;20044;-86
2021/07/30 05:41:57;;;;;;;9.65;4.47;;;;;;;;;;5088956;28;20090;-85
2021/07/30 05:44:24;;;;;;;19.80;10.30;;;;;;;;;;5072627;28;20049;-84
2021/07/30 05:46:51;;;;;;;25.02;13.45;;;;;;;;;;5072170;28;20044;-85
2021/07/30 05:49:17;;;;;;;21.08;10.80;;;;;;;;;;5069767;28;20049;-85
2021/07/30 05:51:44;;;;;;;22.85;10.23;;;;;;;;;;5071771;28;20395;-84
2021/07/30 05:54:10;;;;;;;18.63;9.52;;;;;;;;;;5072041;28;20501;-84
2021/07/30 05:56:37;;;;;;;19.73;6.55;;;;;;;;;;5072350;28;20044;-84
2021/07/30 05:59:05;;;;;;;25.77;10.18;;;;;;;;;;5071658;28;20056;-85
2021/07/30 06:01:31;;;;;;;16.23;8.45;;;;;;;;;;5071885;28;20048;-85
2021/07/30 06:03:58;;;;;;;15.52;8.32;;;;;;;;;;5072166;28;20397;-85
2021/07/30 06:06:24;;;;;;;15.18;7.80;;;;;;;;;;5071708;28;20048;-85
2021/07/30 06:08:51;;;;;;;17.10;6.72;;;;;;;;;;5071735;28;20057;-84
2021/07/30 06:11:18;;;;;;;11.27;7.22;;;;;;;;;;5071773;28;20052;-84
2021/07/30 06:13:44;;;;;;;15.20;6.22;;;;;;;;;;5071900;28;20044;-86
2021/07/30 06:16:12;;;;;;;29.00;10.25;;;;;;;;;;5071682;28;20049;-84
2021/07/30 06:18:39;;;;;;;27.73;10.27;;;;;;;;;;5071614;28;20048;-84
2021/07/30 06:21:05;;;;;;;20.23;6.05;;;;;;;;;;5071768;28;20073;-87
2021/07/30 06:23:32;;;;;;;27.35;8.35;;;;;;;;;;5071463;28;20037;-84
2021/07/30 06:25:59;;;;;;;11.13;5.10;;;;;;;;;;5071401;28;20131;-85
2021/07/30 06:28:25;;;;;;;19.15;6.13;;;;;;;;;;5071454;28;20402;-85
2021/07/30 06:30:52;;;;;;;9.30;5.15;;;;;;;;;;5071689;28;20044;-85
2021/07/30 06:33:22;;;;;;;13.25;6.47;;;;;;;;;;5071668;28;20044;-86
2021/07/30 06:35:49;;;;;;;10.00;5.07;;;;;;;;;;5071743;28;20475;-85
2021/07/30 06:38:15;;;;;;;8.38;4.68;;;;;;;;;;5071713;28;20507;-86
2021/07/30 06:40:44;;;;;;;28.05;6.55;;;;;;;;;;5044313;28;20044;-86
2021/07/30 06:43:11;;;;;;;20.88;5.97;;;;;;;;;;5071568;28;20414;-86
2021/07/30 06:45:37;;;;;;;21.48;7.47;;;;;;;;;;5071808;28;20045;-86
2021/07/30 06:48:04;;;;;;;12.40;5.20;;;;;;;;;;5071653;28;20434;-86
2021/07/30 06:50:32;;;;;;;10.70;5.70;;;;;;;;;;5071516;28;20054;-86
2021/07/30 06:53:00;;;;;;;13.20;5.93;;;;;;;;;;5071275;28;20048;-86
2021/07/30 06:55:26;;;;;;;22.27;5.72;;;;;;;;;;5071390;28;20491;-86
2021/07/30 06:57:53;;;;;;;20.23;7.68;;;;;;;;;;5071445;28;20163;-85
2021/07/30 07:00:19;;;;;;;12.15;6.65;;;;;;;;;;5048305;28;20045;-84
2021/07/30 07:02:46;;;;;;;8.05;4.75;;;;;;;;;;5071161;28;20502;-87
2021/07/30 07:05:12;;;;;;;13.95;5.50;;;;;;;;;;5071175;28;20070;-86
2021/07/30 07:07:40;;;;;;;13.30;4.80;;;;;;;;;;5071350;28;20098;-87
2021/07/30 07:10:08;;;;;;;15.90;6.90;;;;;;;;;;5071500;28;20041;-88
2021/07/30 07:12:34;;;;;;;13.38;8.00;;;;;;;;;;5071067;28;20063;-89
2021/07/30 07:15:01;;;;;;;19.02;7.20;;;;;;;;;;5071188;28;20041;-88
2021/07/30 07:17:27;;;;;;;14.25;6.60;;;;;;;;;;5070931;28;20048;-87
2021/07/30 07:19:54;;;;;;;18.58;6.70;;;;;;;;;;5070794;28;20476;-88
2021/07/30 07:22:20;;;;;;;11.63;6.35;;;;;;;;;;5070942;28;20434;-88
2021/07/30 07:24:48;;;;;;;15.43;6.63;;;;;;;;;;5071418;28;20055;-88
2021/07/30 07:27:15;;;;;;;29.58;9.32;;;;;;;;;;5070932;28;20048;-88
2021/07/30 07:29:41;;;;;;;29.75;8.63;;;;;;;;;;5070410;28;20040;-87
2021/07/30 07:32:08;;;;;;;31.92;8.65;;;;;;;;;;5070158;28;20040;-88
2021/07/30 07:34:34;;;;;;;15.48;5.90;;;;;;;;;;5069469;28;20447;-88
2021/07/30 07:37:01;;;;;;;12.90;7.45;;;;;;;;;;5069777;28;20502;-88
2021/07/30 07:39:27;;;;;;;14.32;7.07;;;;;;;;;;5086824;28;20479;-88
2021/07/30 07:41:56;;;;;;;22.85;5.30;;;;;;;;;;5090278;28;20059;-89
2021/07/30 07:44:23;;;;;;;33.03;5.47;;;;;;;;;;5090082;28;20047;-89
2021/07/30 07:46:52;;;;;;;11.90;5.28;;;;;;;;;;5089096;28;20044;-87
2021/07/30 07:49:18;;;;;;;13.68;6.75;;;;;;;;;;5086602;28;20077;-87
2021/07/30 07:51:45;;;;;;;10.05;4.82;;;;;;;;;;5070512;28;20054;-88
2021/07/30 07:54:11;;;;;;;21.73;5.97;;;;;;;;;;5069355;28;20086;-88
2021/07/30 07:56:38;;;;;;;16.10;6.15;;;;;;;;;;5069919;28;20041;-88
2021/07/30 07:59:07;;;;;;;29.10;7.75;;;;;;;;;;5069696;28;20052;-88
2021/07/30 08:01:34;;;;;;;24.00;6.63;;;;;;;;;;5069467;28;20110;-88
2021/07/30 08:04:01;;;;;;;12.82;5.20;;;;;;;;;;5069359;28;20044;-90
2021/07/30 08:06:28;;;;;;;14.90;5.45;;;;;;;;;;5069397;28;20131;-88
2021/07/30 08:08:54;;;;;;;8.50;3.28;;;;;;;;;;5075347;28;20046;-87
2021/07/30 08:11:21;;;;;;;7.22;3.50;;;;;;;;;;5087028;28;20368;-89
2021/07/30 08:13:48;;;;;;;9.65;4.63;;;;;;;;;;5089773;28;20364;-89
2021/07/30 08:16:16;;;;;;;10.27;4.47;;;;;;;;;;5089562;28;20447;-88
2021/07/30 08:18:42;;;;;;;18.90;5.30;;;;;;;;;;5089298;28;20044;-88
2021/07/30 08:21:09;;;;;;;8.80;3.83;;;;;;;;;;5084042;28;20054;-92
2021/07/30 08:23:36;;;;;;;11.15;3.35;;;;;;;;;;5070031;28;20048;-89
2021/07/30 08:26:03;;;;;;;8.68;3.45;;;;;;;;;;5069242;28;20075;-89
2021/07/30 08:28:29;;;;;;;10.90;4.05;;;;;;;;;;5086720;28;20048;-90
2021/07/30 08:30:57;;;;;;;4.32;2.13;;;;;;;;;;5088411;28;20524;-90
2021/07/30 08:33:41;;;;;;;15.85;3.65;;;;;;;;;;5087929;28;20040;-90
2021/07/30 08:36:11;;;;;;;14.60;3.17;;;;;;;;;;5088897;28;20048;-90
2021/07/30 08:38:41;;;;;;;5.65;2.75;;;;;;;;;;5082205;28;20059;-90
2021/07/30 08:41:17;;;;;;;8.48;2.78;;;;;;;;;;5069177;28;20561;-92
2021/07/30 08:43:51;;;;;;;4.90;3.05;;;;;;;;;;5068730;28;20044;-91
2021/07/30 08:46:22;;;;;;;8.25;3.67;;;;;;;;;;5068978;28;20056;-91
2021/07/30 08:48:59;;;;;;;9.63;4.13;;;;;;;;;;5063131;28;20182;-91
2021/07/30 08:51:34;;;;;;;3.65;2.05;;;;;;;;;;5068472;28;20047;-92
2021/07/30 08:54:10;;;;;;;16.13;4.35;;;;;;;;;;5068819;28;20049;-90
2021/07/30 08:56:45;;;;;;;4.28;2.17;;;;;;;;;;5072293;28;20044;-91
2021/07/30 08:59:12;;;;;;;6.85;2.85;;;;;;;;;;5073289;28;20075;-89
2021/07/30 09:01:44;;;;;;;6.15;2.40;;;;;;;;;;5073400;28;20395;-92
2021/07/30 09:04:45;;;;;;;4.90;2.80;;;;;;;;;;5072388;28;20045;-91
2021/07/30 09:07:23;;;;;;;4.13;2.45;;;;;;;;;;5072195;28;20048;-91
2021/07/30 09:09:55;;;;;;;3.95;1.83;;;;;;;;;;5072493;28;20045;-90
2021/07/30 09:12:24;;;;;;;5.13;2.63;;;;;;;;;;5072868;28;20079;-89
2021/07/30 09:14:59;;;;;;;3.83;1.55;;;;;;;;;;5072242;28;20503;-90
2021/07/30 09:17:39;;;;;;;2.97;1.65;;;;;;;;;;5072329;28;20384;-90
2021/07/30 09:20:08;;;;;;;3.90;2.22;;;;;;;;;;5073083;28;20040;-90
2021/07/30 09:23:17;;;;;;;9.40;2.60;;;;;;;;;;5072678;28;20044;-92
2021/07/30 09:25:53;;;;;;;8.57;2.63;;;;;;;;;;5051394;28;20048;-93
2021/07/30 09:28:27;;;;;;;1.88;1.20;;;;;;;;;;5072246;28;20402;-94
2021/07/30 09:31:03;;;;;;;3.90;2.13;;;;;;;;;;5072607;28;20051;-90
2021/07/30 09:33:36;;;;;;;7.05;2.65;;;;;;;;;;5072345;28;20048;-92
2021/07/30 09:36:04;;;;;;;4.63;2.15;;;;;;;;;;5071649;28;20135;-89
2021/07/30 09:38:40;;;;;;;5.72;2.78;;;;;;;;;;5071923;28;20059;-91
2021/07/30 09:41:18;;;;;;;3.38;2.38;;;;;;;;;;5071880;28;20074;-92
2021/07/30 09:43:46;;;;;;;3.17;1.48;;;;;;;;;;5072706;28;20048;-89
2021/07/30 09:46:15;;;;;;;4.05;1.73;;;;;;;;;;5072119;28;20047;-89
2021/07/30 09:49:00;;;;;;;4.65;2.22;;;;;;;;;;5071888;28;20099;-90
2021/07/30 09:51:30;;;;;;;9.88;2.28;;;;;;;;;;5072742;28;20048;-91
2021/07/30 09:54:20;;;;;;;2.78;2.35;;;;;;;;;;5071426;28;20040;-91
2021/07/30 09:56:52;;;;;;;7.35;1.55;;;;;;;;;;5070291;28;20195;-91
2021/07/30 09:59:27;;;;;;;11.70;4.47;;;;;;;;;;5071929;28;20376;-93
2021/07/30 10:02:01;;;;;;;11.15;1.88;;;;;;;;;;5072043;28;20075;-92
2021/07/30 10:04:31;;;;;;;2.37;1.23;;;;;;;;;;5071370;28;20048;-90
2021/07/30 10:07:04;;;;;;;3.85;1.70;;;;;;;;;;5084183;28;20491;-92
2021/07/30 10:09:38;;;;;;;4.25;1.65;;;;;;;;;;5091496;28;20059;-92
2021/07/30 10:12:17;;;;;;;5.00;1.65;;;;;;;;;;5091837;28;20048;-93
2021/07/30 10:14:48;;;;;;;6.63;2.17;;;;;;;;;;5091612;28;20109;-93
2021/07/30 10:17:33;;;;;;;3.05;1.67;;;;;;;;;;5091125;28;20474;-92
2021/07/30 10:20:02;;;;;;;;;;;;;;;;;;5091724;28;20491;-91
2021/07/30 10:22:39;;;;;;;3.47;1.98;;;;;;;;;;5091535;28;19916;-92
2021/07/30 10:25:14;;;;;;;3.00;0.80;;;;;;;;;;5091716;28;20398;-91
2021/07/30 10:27:46;;;;;;;5.78;1.20;;;;;;;;;;5091212;28;20048;-91
2021/07/30 10:30:15;;;;;;;4.00;1.25;;;;;;;;;;5090810;28;20097;-89
2021/07/30 10:32:51;;;;;;;3.42;1.60;;;;;;;;;;5091857;28;21069;-92
2021/07/30 10:35:25;;;;;;;6.32;2.05;;;;;;;;;;5091167;28;20054;-91
2021/07/30 10:38:12;;;;;;;3.58;1.65;;;;;;;;;;5090904;28;20135;-92
2021/07/30 10:40:40;;;;;;;5.13;2.58;;;;;;;;;;5091434;28;20044;-90
2021/07/30 10:43:09;;;;;;;8.90;2.55;;;;;;;;;;5091753;28;20059;-92
2021/07/30 10:45:36;;;;;;;3.55;1.17;;;;;;;;;;5092595;28;20044;-92
2021/07/30 10:48:23;;;;;;;3.53;2.03;;;;;;;;;;5092824;28;20054;-90
2021/07/30 10:50:55;;;;;;;7.55;2.70;;;;;;;;;;5090271;28;20059;-91
2021/07/30 10:53:40;;;;;;;3.83;2.10;;;;;;;;;;5092221;28;20067;-90
2021/07/30 10:56:07;;;;;;;8.32;1.35;;;;;;;;;;5091241;28;20052;-90
2021/07/30 10:58:50;;;;;;;3.60;1.63;;;;;;;;;;5090862;28;20044;-91
2021/07/30 11:01:19;;;;;;;8.70;2.38;;;;;;;;;;5090627;28;20495;-91
2021/07/30 11:04:04;;;;;;;3.80;2.08;;;;;;;;;;5082718;28;20131;-93
2021/07/30 11:06:31;;;;;;;13.60;3.33;;;;;;;;;;5071739;28;20052;-90
2021/07/30 11:09:12;;;;;;;5.32;2.05;;;;;;;;;;5071956;28;20131;-92
2021/07/30 11:11:39;;;;;;;6.32;1.40;;;;;;;;;;5072085;28;20094;-92
2021/07/30 11:14:07;;;;;;;5.43;2.10;;;;;;;;;;5071886;28;20132;-92
2021/07/30 11:16:35;;;;;;;5.25;1.98;;;;;;;;;;5070321;28;20045;-91
2021/07/30 11:19:01;;;;;;;6.05;1.10;;;;;;;;;;5069157;28;20052;-92
2021/07/30 11:37:03;;;;;;;2.60;1.20;;;;;;;;;;5071755;28;20110;-93
2021/07/30 11:39:32;;;;;;;3.80;1.83;;;;;;;;;;5079455;28;20055;-91
2021/07/30 11:42:01;;;;;;;4.88;1.88;;;;;;;;;;5090252;28;20037;-93
2021/07/30 11:44:28;;;;;;;5.22;1.55;;;;;;;;;;5090173;28;20051;-92
2021/07/30 11:47:00;;;;;;;5.63;2.20;;;;;;;;;;5090939;28;20066;-95
2021/07/30 11:49:41;;;;;;;4.20;1.42;;;;;;;;;;5089962;28;20411;-95
2021/07/30 11:52:10;;;;;;;5.18;1.35;;;;;;;;;;5081519;28;20051;-95
2021/07/30 11:54:38;;;;;;;1.95;1.23;;;;;;;;;;5072027;28;20161;-94
2021/07/30 11:57:09;;;;;;;9.60;2.53;;;;;;;;;;5071178;28;20040;-92
2021/07/30 11:59:45;;;;;;;6.18;2.30;;;;;;;;;;5073128;28;20052;-93
2021/07/30 12:02:16;;;;;;;2.05;1.30;;;;;;;;;;5071091;28;20036;-92
2021/07/30 12:05:09;;;;;;;4.25;1.95;;;;;;;;;;5070331;28;20131;-95
2021/07/30 12:07:39;;;;;;;4.05;1.75;;;;;;;;;;5072331;28;20043;-92
2021/07/30 12:10:18;;;;;;;4.63;2.95;;;;;;;;;;5074602;28;20041;-93
2021/07/30 12:15:39;;;;;;;6.32;2.13;;;;;;;;;;5063324;28;20044;-95
2021/07/30 12:18:06;;;;;;;5.13;2.10;;;;;;;;;;5070960;28;20071;-91
2021/07/30 12:20:34;;;;;;;5.88;2.70;;;;;;;;;;5069955;28;20048;-90
2021/07/30 12:23:04;;;;;;;3.28;2.13;;;;;;;;;;5070513;28;20479;-92
2021/07/30 12:28:26;;;;;;;8.20;1.30;;;;;;;;;;5067925;28;20492;-92
2021/07/30 12:30:56;;;;;;;6.28;1.08;;;;;;;;;;5072072;28;20052;-94
2021/07/30 12:33:27;;;;;;;6.88;2.25;;;;;;;;;;5071491;28;20665;-94
2021/07/30 12:36:18;;;;;;;3.50;1.38;;;;;;;;;;5071663;28;20044;-93
2021/07/30 12:38:51;;;;;;;4.90;1.98;;;;;;;;;;5059903;28;20151;-92
2021/07/30 12:41:20;;;;;;;4.15;1.92;;;;;;;;;;5069474;28;20051;-92
2021/07/30 12:43:53;;;;;;;3.08;1.30;;;;;;;;;;5070856;28;20055;-93
2021/07/30 12:46:36;;;;;;;5.80;1.38;;;;;;;;;;5071884;28;20052;-93
2021/07/30 12:49:02;;;;;;;5.82;1.73;;;;;;;;;;5071346;28;20062;-91
2021/07/30 12:51:45;;;;;;;4.72;2.47;;;;;;;;;;5074293;28;20058;-96
2021/07/30 12:54:20;;;;;;;3.38;1.60;;;;;;;;;;5071494;28;20059;-94
2021/07/30 12:57:05;;;;;;;3.42;1.40;;;;;;;;;;5069919;28;20484;-91
2021/07/30 12:59:50;;;;;;;4.07;1.60;;;;;;;;;;5092757;28;20044;-92
2021/07/30 13:02:20;;;;;;;6.22;1.90;;;;;;;;;;5093227;28;20044;-92
2021/07/30 13:05:17;;;;;;;;;;;;;;;;;;;;;
2021/07/30 13:11:17;;;;;;;5.17;2.10;;;;;;;;;;5094503;28;20100;-96
2021/07/30 13:14:01;;;;;;;9.30;2.40;;;;;;;;;;5090546;28;20409;-95
2021/07/30 13:16:40;;;;;;;5.70;2.15;;;;;;;;;;5095897;28;20486;-95
2021/07/30 13:19:07;;;;;;;4.80;1.77;;;;;;;;;;5094859;28;20052;-91
2021/07/30 13:21:34;;;;;;;5.60;2.60;;;;;;;;;;5090497;28;20044;-91
2021/07/30 13:24:03;;;;;;;5.45;1.60;;;;;;;;;;5087554;28;20041;-96
2021/07/30 13:26:30;;;;;;;2.10;1.30;;;;;;;;;;5090645;28;20059;-92
2021/07/30 13:28:56;;;;;;;7.47;2.88;;;;;;;;;;5075579;28;20044;-91
2021/07/30 13:31:23;;;;;;;6.38;1.73;;;;;;;;;;5068990;28;20041;-91
2021/07/30 13:33:58;;;;;;;2.80;1.52;;;;;;;;;;5069344;28;20051;-94
2021/07/30 13:36:30;;;;;;;8.98;2.35;;;;;;;;;;5070930;28;20080;-94
2021/07/30 13:38:56;;;;;;;7.30;1.50;;;;;;;;;;5071230;28;20118;-91
2021/07/30 13:41:26;;;;;;;3.45;1.27;;;;;;;;;;5072209;28;20044;-94
2021/07/30 13:43:52;;;;;;;5.22;2.22;;;;;;;;;;5074351;28;20132;-91
2021/07/30 13:46:22;;;;;;;3.45;1.67;;;;;;;;;;5076632;28;20079;-96
2021/07/30 13:48:49;;;;;;;1.40;0.80;;;;;;;;;;5074794;28;20049;-92
2021/07/30 13:54:28;;;;;;;5.93;2.80;;;;;;;;;;5069311;28;20063;-89
2021/07/30 13:56:57;;;;;;;4.85;2.50;;;;;;;;;;5074215;28;20102;-92
2021/07/30 13:59:36;;;;;;;1.95;1.00;;;;;;;;;;5074590;28;20524;-93
2021/07/30 14:02:03;;;;;;;5.68;2.55;;;;;;;;;;5074841;28;20055;-94
2021/07/30 14:04:34;;;;;;;2.90;2.08;;;;;;;;;;5072974;28;20055;-91
2021/07/30 14:07:01;;;;;;;2.85;1.52;;;;;;;;;;5072356;28;20048;-91
2021/07/30 14:09:29;;;;;;;2.25;1.00;;;;;;;;;;5072167;28;20040;-90
2021/07/30 14:11:55;;;;;;;4.60;1.30;;;;;;;;;;5072125;28;20047;-87
2021/07/30 14:14:22;;;;;;;4.28;2.58;;;;;;;;;;5072196;28;20071;-94
2021/07/30 14:16:52;;;;;;;2.92;1.40;;;;;;;;;;5071667;28;20040;-91
2021/07/30 14:19:18;;;;;;;4.15;1.98;;;;;;;;;;5072101;28;20048;-90
2021/07/30 14:21:45;;;;;;;4.18;1.92;;;;;;;;;;5071957;28;20036;-89
2021/07/30 14:24:12;;;;;;;2.13;1.10;;;;;;;;;;5072375;28;20048;-92
2021/07/30 14:26:39;;;;;;;12.63;2.55;;;;;;;;;;5072130;28;20044;-90
2021/07/30 14:29:06;;;;;;;3.88;1.75;;;;;;;;;;5087132;28;20048;-93
2021/07/30 14:31:34;;;;;;;3.22;1.27;;;;;;;;;;5092605;28;20055;-92
2021/07/30 14:34:05;;;;;;;5.55;2.15;;;;;;;;;;5093223;28;20052;-93
2021/07/30 14:36:31;;;;;;;4.70;3.17;;;;;;;;;;5093206;28;20051;-93
2021/07/30 14:39:00;;;;;;;6.28;2.83;;;;;;;;;;5083336;28;20048;-94
2021/07/30 14:44:25;;;;;;;;;;;;;;;;;;5072994;28;20056;-91
2021/07/30 14:50:22;;;;;;;4.28;1.95;;;;;;;;;;4995032;28;20186;-94
2021/07/30 14:52:58;;;;;;;10.77;1.90;;;;;;;;;;5047495;28;20480;-95
2021/07/30 14:55:45;;;;;;;2.00;1.33;;;;;;;;;;5075111;28;20094;-94
2021/07/30 14:58:13;;;;;;;2.05;1.45;;;;;;;;;;5073124;28;20052;-93
2021/07/30 15:00:41;;;;;;;7.75;2.50;;;;;;;;;;5073440;28;20126;-92
2021/07/30 15:06:05;;;;;;;3.58;1.33;;;;;;;;;;5069597;28;20059;-94
2021/07/30 15:08:37;;;;;;;2.05;1.35;;;;;;;;;;5085638;28;20067;-91
2021/07/30 15:11:10;;;;;;;4.53;1.55;;;;;;;;;;5094610;28;20067;-93
2021/07/30 15:13:50;;;;;;;4.97;2.47;;;;;;;;;;5093402;28;20051;-94
2021/07/30 15:16:32;;;;;;;2.65;1.30;;;;;;;;;;5092901;28;20035;-95
2021/07/30 15:18:58;;;;;;;2.78;1.88;;;;;;;;;;5093985;28;20356;-91
2021/07/30 15:21:27;;;;;;;3.35;1.77;;;;;;;;;;5095387;28;20048;-94
2021/07/30 15:26:48;;;;;;;3.53;1.80;;;;;;;;;;5092179;28;20055;-94
2021/07/30 15:29:17;;;;;;;7.78;1.45;;;;;;;;;;5093962;28;20048;-93
2021/07/30 15:34:30;;;;;;;2.25;1.90;;;;;;;;;;5089446;28;20043;-94
2021/07/30 15:36:57;;;;;;;2.10;1.58;;;;;;;;;;5091633;28;20044;-91
2021/07/30 15:39:33;;;;;;;2.53;1.73;;;;;;;;;;5091892;28;20056;-91